Time;durP1;ratioP1;P1;durP2;ratioP2;P2;SDS_P1;SDS_P2;PMS_P1;PMS_P2;Temp;Humidity;BMP_temperature;BMP_pressure;BME280_temperature;BME280_humidity;BME280_pressure;Samples;Min_cycle;Max_cycle;Signal;HPM_P1;HPM_P2
2023/11/14 00:03:22;;;;;;;6.80;3.60;;;;;;;;;;10202618;29;20070;-61
2023/11/14 00:08:22;;;;;;;5.53;3.85;;;;;;;;;;10201922;29;20024;-60
2023/11/14 00:13:23;;;;;;;3.90;3.50;;;;;;;;;;10199201;29;20031;-61
2023/11/14 00:18:24;;;;;;;11.50;3.33;;;;;;;;;;10203553;29;20031;-61
2023/11/14 00:23:24;;;;;;;4.35;3.60;;;;;;;;;;10203632;29;20027;-61
2023/11/14 00:28:25;;;;;;;4.13;3.22;;;;;;;;;;10204172;29;20028;-60
2023/11/14 00:33:25;;;;;;;3.85;3.47;;;;;;;;;;10203366;29;20043;-54
2023/11/14 00:38:26;;;;;;;4.68;3.35;;;;;;;;;;10203845;29;20038;-61
2023/11/14 00:43:27;;;;;;;4.28;3.63;;;;;;;;;;10203613;29;20028;-60
2023/11/14 00:48:28;;;;;;;5.55;3.70;;;;;;;;;;10203350;29;20023;-61
2023/11/14 00:53:28;;;;;;;9.73;3.70;;;;;;;;;;10203813;29;20098;-60
2023/11/14 00:58:29;;;;;;;6.60;3.65;;;;;;;;;;10204349;29;20082;-60
2023/11/14 01:03:30;;;;;;;3.95;3.55;;;;;;;;;;10204049;29;20024;-61
2023/11/14 01:08:30;;;;;;;4.25;3.85;;;;;;;;;;10204563;29;20047;-60
2023/11/14 01:13:31;;;;;;;4.38;3.63;;;;;;;;;;10205948;29;20522;-62
2023/11/14 01:18:32;;;;;;;4.25;3.58;;;;;;;;;;10213032;29;20063;-59
2023/11/14 01:23:32;;;;;;;4.28;3.72;;;;;;;;;;10212952;29;20024;-62
2023/11/14 01:28:33;;;;;;;3.75;3.33;;;;;;;;;;10211118;29;20141;-61
2023/11/14 01:33:34;;;;;;;5.00;3.75;;;;;;;;;;10211149;29;20403;-59
2023/11/14 01:38:34;;;;;;;4.25;3.45;;;;;;;;;;10211808;29;20028;-62
2023/11/14 01:43:46;;;;;;;4.50;3.55;;;;;;;;;;10211437;29;20043;-60
2023/11/14 01:48:50;;;;;;;5.07;3.75;;;;;;;;;;10209783;29;20468;-61
2023/11/14 01:53:55;;;;;;;4.18;3.53;;;;;;;;;;10225993;29;20535;-62
2023/11/14 01:58:56;;;;;;;4.97;4.35;;;;;;;;;;10210696;29;20032;-59
2023/11/14 02:03:59;;;;;;;4.72;3.58;;;;;;;;;;10209370;29;20038;-63
2023/11/14 02:09:00;;;;;;;4.18;3.25;;;;;;;;;;10224706;29;20043;-63
2023/11/14 02:14:01;;;;;;;5.18;3.40;;;;;;;;;;10224478;28;20035;-60
2023/11/14 02:19:01;;;;;;;3.92;3.47;;;;;;;;;;10210095;29;20111;-61
2023/11/14 02:24:08;;;;;;;3.95;3.40;;;;;;;;;;10209888;29;20087;-61
2023/11/14 02:29:08;;;;;;;4.57;3.53;;;;;;;;;;10223886;29;20062;-63
2023/11/14 02:34:10;;;;;;;4.57;3.55;;;;;;;;;;10209509;29;20067;-56
2023/11/14 02:39:13;;;;;;;4.68;3.63;;;;;;;;;;10209334;29;20032;-63
2023/11/14 02:44:14;;;;;;;4.47;3.60;;;;;;;;;;10207936;29;20455;-63
2023/11/14 02:49:45;;;;;;;3.65;3.22;;;;;;;;;;10209213;29;20095;-61
2023/11/14 02:54:45;;;;;;;4.05;3.35;;;;;;;;;;10221709;28;20045;-62
2023/11/14 02:59:47;;;;;;;4.10;3.65;;;;;;;;;;10208473;29;20027;-61
2023/11/14 03:04:48;;;;;;;5.72;3.63;;;;;;;;;;10208531;29;20032;-61
2023/11/14 03:09:49;;;;;;;4.15;3.75;;;;;;;;;;10208217;29;20035;-63
2023/11/14 03:14:49;;;;;;;5.15;3.83;;;;;;;;;;10207568;29;20369;-62
2023/11/14 03:19:50;;;;;;;4.80;3.42;;;;;;;;;;10207279;29;20028;-60
2023/11/14 03:24:51;;;;;;;5.18;3.60;;;;;;;;;;10207108;29;20042;-63
2023/11/14 03:29:51;;;;;;;4.22;3.55;;;;;;;;;;10206978;29;20637;-63
2023/11/14 03:34:52;;;;;;;3.88;3.47;;;;;;;;;;10205816;29;20479;-52
2023/11/14 03:39:52;;;;;;;3.72;3.38;;;;;;;;;;10206561;29;20039;-59
2023/11/14 03:44:53;;;;;;;4.45;3.53;;;;;;;;;;10206703;29;20055;-62
2023/11/14 03:49:54;;;;;;;9.93;3.75;;;;;;;;;;10206305;29;20198;-62
2023/11/14 03:54:54;;;;;;;5.53;3.70;;;;;;;;;;10207043;29;20096;-62
2023/11/14 03:59:55;;;;;;;4.68;3.30;;;;;;;;;;10195097;29;20070;-62
2023/11/14 04:04:55;;;;;;;4.13;3.25;;;;;;;;;;10205502;29;20025;-62
2023/11/14 04:09:56;;;;;;;4.22;3.65;;;;;;;;;;10206702;28;20070;-62
2023/11/14 04:14:57;;;;;;;3.72;3.17;;;;;;;;;;10205993;29;20379;-61
2023/11/14 04:19:58;;;;;;;4.43;3.38;;;;;;;;;;10205367;29;20030;-62
2023/11/14 04:24:58;;;;;;;5.72;3.38;;;;;;;;;;10205457;29;20039;-62
2023/11/14 04:29:59;;;;;;;5.10;3.67;;;;;;;;;;10205498;29;20161;-63
2023/11/14 04:34:59;;;;;;;4.13;3.70;;;;;;;;;;10205316;29;20031;-52
2023/11/14 04:40:00;;;;;;;3.42;3.13;;;;;;;;;;10205494;29;20035;-62
2023/11/14 04:45:01;;;;;;;3.88;3.45;;;;;;;;;;10205350;29;20122;-63
2023/11/14 04:50:02;;;;;;;4.30;3.38;;;;;;;;;;10209689;29;20044;-62
2023/11/14 04:55:04;;;;;;;4.10;3.65;;;;;;;;;;10201533;29;20032;-63
2023/11/14 05:00:07;;;;;;;4.15;3.20;;;;;;;;;;10226554;29;20039;-61
2023/11/14 05:05:09;;;;;;;3.92;2.90;;;;;;;;;;10201494;29;20488;-61
2023/11/14 05:10:10;;;;;;;4.75;3.22;;;;;;;;;;10212399;29;20110;-60
2023/11/14 05:15:11;;;;;;;4.32;3.55;;;;;;;;;;10213063;29;20042;-61
2023/11/14 05:20:11;;;;;;;5.18;3.38;;;;;;;;;;10211942;29;20491;-61
2023/11/14 05:25:12;;;;;;;3.78;3.38;;;;;;;;;;10211131;29;20448;-60
2023/11/14 05:30:13;;;;;;;3.70;3.40;;;;;;;;;;10211940;29;20384;-61
2023/11/14 05:35:14;;;;;;;3.50;3.20;;;;;;;;;;10212169;29;20024;-54
2023/11/14 05:40:15;;;;;;;3.90;3.40;;;;;;;;;;10212166;29;20028;-61
2023/11/14 05:45:16;;;;;;;4.88;3.47;;;;;;;;;;10210968;29;20027;-58
2023/11/14 05:50:17;;;;;;;3.40;3.10;;;;;;;;;;10210818;29;20518;-63
2023/11/14 05:55:17;;;;;;;3.63;3.30;;;;;;;;;;10211149;29;20047;-62
2023/11/14 06:00:18;;;;;;;4.18;3.53;;;;;;;;;;10209521;29;20189;-61
2023/11/14 06:05:19;;;;;;;3.45;2.97;;;;;;;;;;10212139;29;20384;-62
2023/11/14 06:10:19;;;;;;;4.45;3.13;;;;;;;;;;10208830;29;20468;-63
2023/11/14 06:15:21;;;;;;;3.47;3.13;;;;;;;;;;10209316;29;20391;-61
2023/11/14 06:20:22;;;;;;;3.40;3.10;;;;;;;;;;10209802;29;20411;-62
2023/11/14 06:25:23;;;;;;;4.75;3.92;;;;;;;;;;10207053;29;20598;-53
2023/11/14 06:30:24;;;;;;;5.65;4.60;;;;;;;;;;10209851;29;20028;-54
2023/11/14 06:35:24;;;;;;;7.07;5.20;;;;;;;;;;10209075;29;20027;-55
2023/11/14 06:40:25;;;;;;;7.55;4.75;;;;;;;;;;10207831;29;20057;-53
2023/11/14 06:45:25;;;;;;;10.45;5.22;;;;;;;;;;10206798;29;20062;-52
2023/11/14 06:50:26;;;;;;;6.93;5.32;;;;;;;;;;10207103;29;20036;-55
2023/11/14 06:55:28;;;;;;;8.07;5.53;;;;;;;;;;10206709;29;20035;-59
2023/11/14 07:00:28;;;;;;;7.65;5.72;;;;;;;;;;10209102;29;20036;-58
2023/11/14 07:05:32;;;;;;;16.38;6.03;;;;;;;;;;10211160;29;20392;-58
2023/11/14 07:10:34;;;;;;;19.42;6.25;;;;;;;;;;10204811;29;20035;-56
2023/11/14 07:15:35;;;;;;;11.40;6.50;;;;;;;;;;10205803;29;20391;-57
2023/11/14 07:20:36;;;;;;;13.65;6.88;;;;;;;;;;10205861;29;20047;-58
2023/11/14 07:25:42;;;;;;;13.52;6.47;;;;;;;;;;10208170;29;20031;-58
2023/11/14 07:30:43;;;;;;;14.35;5.88;;;;;;;;;;10207736;29;20026;-58
2023/11/14 07:35:43;;;;;;;21.95;6.20;;;;;;;;;;10206647;29;20058;-56
2023/11/14 07:40:44;;;;;;;29.27;6.18;;;;;;;;;;10221218;29;20043;-58
2023/11/14 07:45:44;;;;;;;9.30;6.15;;;;;;;;;;10206798;29;20042;-58
2023/11/14 07:50:46;;;;;;;8.85;6.07;;;;;;;;;;10206140;29;20051;-60
2023/11/14 07:55:47;;;;;;;12.20;6.25;;;;;;;;;;10206175;29;20396;-57
2023/11/14 08:00:49;;;;;;;14.75;5.97;;;;;;;;;;10220838;28;20024;-58
2023/11/14 08:06:00;;;;;;;8.98;5.75;;;;;;;;;;10205895;28;20106;-57
2023/11/14 08:11:13;;;;;;;8.52;5.55;;;;;;;;;;10205234;29;20055;-57
2023/11/14 08:16:14;;;;;;;8.77;5.65;;;;;;;;;;10205619;29;20059;-58
2023/11/14 08:21:15;;;;;;;10.77;5.68;;;;;;;;;;10205140;29;20030;-58
2023/11/14 08:26:15;;;;;;;7.28;5.45;;;;;;;;;;10207469;29;20039;-59
2023/11/14 08:31:16;;;;;;;17.35;5.63;;;;;;;;;;10202256;29;20136;-59
2023/11/14 08:36:16;;;;;;;14.48;5.18;;;;;;;;;;10205206;29;20066;-58
2023/11/14 08:41:17;;;;;;;7.57;5.28;;;;;;;;;;10204909;29;20028;-58
2023/11/14 08:46:18;;;;;;;17.25;6.15;;;;;;;;;;10205133;29;20027;-56
2023/11/14 08:51:21;;;;;;;10.18;5.82;;;;;;;;;;10203898;29;20087;-58
2023/11/14 08:56:21;;;;;;;7.68;5.32;;;;;;;;;;10203889;29;20032;-57
2023/11/14 09:01:24;;;;;;;7.25;5.72;;;;;;;;;;10203515;29;20032;-58
2023/11/14 09:06:24;;;;;;;7.72;5.50;;;;;;;;;;10202784;28;20035;-58
2023/11/14 09:11:25;;;;;;;12.23;6.07;;;;;;;;;;10202998;29;20031;-56
2023/11/14 09:16:26;;;;;;;7.50;6.00;;;;;;;;;;10203297;29;20456;-56
2023/11/14 09:21:27;;;;;;;7.22;5.13;;;;;;;;;;10199764;29;20038;-57
2023/11/14 09:26:27;;;;;;;7.18;4.97;;;;;;;;;;10203757;29;20042;-57
2023/11/14 09:31:28;;;;;;;7.45;5.07;;;;;;;;;;10202812;29;20495;-58
2023/11/14 09:36:29;;;;;;;9.00;5.95;;;;;;;;;;10207170;29;20534;-60
2023/11/14 09:41:32;;;;;;;6.32;4.93;;;;;;;;;;10209829;29;20031;-57
2023/11/14 09:46:33;;;;;;;8.43;5.07;;;;;;;;;;10208127;29;20054;-57
2023/11/14 09:51:36;;;;;;;7.47;5.15;;;;;;;;;;10209176;29;20044;-56
2023/11/14 09:56:38;;;;;;;7.20;4.97;;;;;;;;;;10208660;29;20044;-60
2023/11/14 10:01:40;;;;;;;7.03;4.47;;;;;;;;;;10215282;29;20023;-61
2023/11/14 10:06:41;;;;;;;8.43;5.20;;;;;;;;;;10216575;28;20417;-58
2023/11/14 10:11:46;;;;;;;6.72;5.43;;;;;;;;;;10210670;29;20066;-56
2023/11/14 10:16:59;;;;;;;6.57;4.95;;;;;;;;;;10208489;29;20123;-57
2023/11/14 10:22:07;;;;;;;5.78;4.25;;;;;;;;;;10205801;29;20182;-57
2023/11/14 10:27:08;;;;;;;7.90;4.32;;;;;;;;;;10209661;29;20056;-61
2023/11/14 10:32:12;;;;;;;7.72;4.72;;;;;;;;;;10209101;29;20118;-56
2023/11/14 10:37:27;;;;;;;6.97;4.80;;;;;;;;;;10215135;29;20506;-56
2023/11/14 10:42:28;;;;;;;7.13;4.50;;;;;;;;;;10210062;29;20363;-55
2023/11/14 10:47:43;;;;;;;5.50;4.30;;;;;;;;;;10222557;28;20030;-56
2023/11/14 10:52:44;;;;;;;5.72;4.65;;;;;;;;;;10213441;29;20052;-56
2023/11/14 10:57:46;;;;;;;8.23;4.30;;;;;;;;;;10209954;29;20032;-57
2023/11/14 11:02:50;;;;;;;5.40;4.40;;;;;;;;;;10200732;29;20439;-55
2023/11/14 11:07:51;;;;;;;7.35;4.18;;;;;;;;;;10192242;29;20151;-57
2023/11/14 11:12:54;;;;;;;7.78;4.70;;;;;;;;;;10191317;29;20428;-59
2023/11/14 11:18:00;;;;;;;6.47;4.40;;;;;;;;;;10202163;29;20388;-60
2023/11/14 11:23:05;;;;;;;7.10;4.65;;;;;;;;;;10194915;29;20054;-57
2023/11/14 11:28:27;;;;;;;5.50;4.13;;;;;;;;;;10197891;29;20031;-58
2023/11/14 11:33:36;;;;;;;7.72;5.40;;;;;;;;;;10203300;29;20612;-57
2023/11/14 11:38:37;;;;;;;7.07;4.28;;;;;;;;;;10200618;29;20083;-57
2023/11/14 11:43:41;;;;;;;6.50;4.68;;;;;;;;;;10202328;29;20445;-61
2023/11/14 11:48:43;;;;;;;7.18;4.68;;;;;;;;;;10200585;28;20039;-62
2023/11/14 11:53:43;;;;;;;4.95;4.22;;;;;;;;;;10247349;23;20510;-61
2023/11/14 11:58:48;;;;;;;7.28;4.70;;;;;;;;;;10238208;28;20031;-61
2023/11/14 12:03:48;;;;;;;6.45;4.18;;;;;;;;;;10235773;28;20457;-61
2023/11/14 12:08:51;;;;;;;5.07;4.15;;;;;;;;;;10237083;28;20031;-61
2023/11/14 12:13:54;;;;;;;7.50;4.80;;;;;;;;;;10240694;28;20046;-61
2023/11/14 12:18:55;;;;;;;5.13;3.97;;;;;;;;;;10239294;28;20450;-61
2023/11/14 12:23:55;;;;;;;10.15;4.13;;;;;;;;;;10240910;28;20031;-61
2023/11/14 12:28:56;;;;;;;6.18;4.13;;;;;;;;;;10240840;28;20039;-60
2023/11/14 12:33:58;;;;;;;8.20;4.43;;;;;;;;;;10241016;28;20023;-61
2023/11/14 12:39:16;;;;;;;5.18;4.43;;;;;;;;;;10243870;28;20467;-61
2023/11/14 12:44:17;;;;;;;8.35;4.72;;;;;;;;;;10242693;28;20090;-61
2023/11/14 12:49:19;;;;;;;5.90;4.22;;;;;;;;;;10243065;28;20114;-61
2023/11/14 12:54:22;;;;;;;5.82;4.28;;;;;;;;;;10240790;28;20046;-61
2023/11/14 12:59:24;;;;;;;7.68;4.43;;;;;;;;;;10244058;28;20259;-61
2023/11/14 13:04:24;;;;;;;6.70;4.22;;;;;;;;;;10244588;28;20031;-61
2023/11/14 13:09:26;;;;;;;7.22;3.97;;;;;;;;;;10243145;28;20036;-61
2023/11/14 13:14:27;;;;;;;4.85;3.90;;;;;;;;;;10246547;28;20035;-61
2023/11/14 13:19:27;;;;;;;6.03;4.43;;;;;;;;;;10251934;28;20493;-61
2023/11/14 13:24:29;;;;;;;6.13;4.22;;;;;;;;;;10238637;28;20483;-61
2023/11/14 13:29:29;;;;;;;5.45;4.07;;;;;;;;;;10232644;28;20372;-61
2023/11/14 13:34:30;;;;;;;7.65;4.30;;;;;;;;;;10247676;28;20035;-61
2023/11/14 13:39:32;;;;;;;5.28;3.97;;;;;;;;;;10236309;29;20028;-61
2023/11/14 13:44:33;;;;;;;5.22;4.03;;;;;;;;;;10229526;28;20032;-61
2023/11/14 13:49:34;;;;;;;4.25;3.40;;;;;;;;;;10220509;28;20502;-60
2023/11/14 13:54:35;;;;;;;5.85;4.35;;;;;;;;;;10225322;28;20043;-61
2023/11/14 13:59:37;;;;;;;6.93;3.95;;;;;;;;;;10219354;29;20064;-61
2023/11/14 14:04:38;;;;;;;4.05;3.63;;;;;;;;;;10230023;28;20031;-61
2023/11/14 14:09:38;;;;;;;5.50;3.50;;;;;;;;;;10234620;29;20103;-61
2023/11/14 14:14:39;;;;;;;4.85;3.80;;;;;;;;;;10232534;28;20050;-61
2023/11/14 14:19:45;;;;;;;5.85;3.85;;;;;;;;;;10242817;28;20397;-61
2023/11/14 14:24:46;;;;;;;10.93;4.25;;;;;;;;;;10244210;28;20493;-61
2023/11/14 14:29:47;;;;;;;5.72;3.97;;;;;;;;;;10243120;28;20027;-61
2023/11/14 14:34:48;;;;;;;7.53;3.92;;;;;;;;;;10240339;28;20143;-61
2023/11/14 14:39:49;;;;;;;5.55;3.88;;;;;;;;;;10241910;28;20039;-61
2023/11/14 14:44:52;;;;;;;6.60;4.07;;;;;;;;;;10235524;29;20387;-61
2023/11/14 14:49:54;;;;;;;8.65;4.10;;;;;;;;;;10211380;28;20399;-61
2023/11/14 14:54:55;;;;;;;8.15;4.07;;;;;;;;;;10210792;28;20616;-61
2023/11/14 14:59:55;;;;;;;7.32;3.83;;;;;;;;;;10213858;28;20028;-62
2023/11/14 15:04:56;;;;;;;6.07;4.10;;;;;;;;;;10215091;29;20034;-62
2023/11/14 15:09:57;;;;;;;5.38;3.58;;;;;;;;;;10216093;29;20490;-62
2023/11/14 15:15:00;;;;;;;6.63;4.70;;;;;;;;;;10247596;28;20402;-62
2023/11/14 15:20:07;;;;;;;7.10;3.80;;;;;;;;;;10261696;28;20077;-61
2023/11/14 15:25:09;;;;;;;4.88;3.50;;;;;;;;;;10249178;28;20035;-62
2023/11/14 15:30:10;;;;;;;7.25;3.58;;;;;;;;;;10257293;28;20046;-62
2023/11/14 15:35:13;;;;;;;6.85;3.80;;;;;;;;;;10244810;28;20304;-61
2023/11/14 15:40:14;;;;;;;3.65;3.28;;;;;;;;;;10238078;28;20038;-62
2023/11/14 15:45:15;;;;;;;5.13;3.78;;;;;;;;;;10214358;29;20513;-61
2023/11/14 15:50:16;;;;;;;4.43;3.35;;;;;;;;;;10212797;29;20043;-61
2023/11/14 15:55:16;;;;;;;5.25;3.70;;;;;;;;;;10220968;28;20046;-62
2023/11/14 16:00:17;;;;;;;5.63;3.30;;;;;;;;;;10255357;28;20490;-61
2023/11/14 16:05:18;;;;;;;5.68;3.63;;;;;;;;;;10248220;28;20485;-62
2023/11/14 16:10:18;;;;;;;6.45;3.70;;;;;;;;;;10232000;28;20023;-61
2023/11/14 16:15:19;;;;;;;5.65;3.50;;;;;;;;;;10243844;28;20035;-61
2023/11/14 16:20:20;;;;;;;7.13;3.47;;;;;;;;;;10219571;29;20164;-62
2023/11/14 16:25:21;;;;;;;6.20;3.58;;;;;;;;;;10241720;28;20101;-62
2023/11/14 16:30:22;;;;;;;5.63;3.42;;;;;;;;;;10250339;28;20039;-61
2023/11/14 16:35:22;;;;;;;5.97;3.97;;;;;;;;;;10243707;28;20039;-62
2023/11/14 16:40:24;;;;;;;6.07;4.15;;;;;;;;;;10237339;28;20170;-62
2023/11/14 16:45:24;;;;;;;7.28;4.00;;;;;;;;;;10242322;28;20478;-62
2023/11/14 16:50:25;;;;;;;5.35;3.65;;;;;;;;;;10228460;28;20056;-62
2023/11/14 16:55:26;;;;;;;6.07;3.65;;;;;;;;;;10220695;29;20027;-62
2023/11/14 17:00:27;;;;;;;3.88;3.58;;;;;;;;;;10216831;29;20402;-62
2023/11/14 17:05:28;;;;;;;3.97;3.55;;;;;;;;;;10226103;29;20039;-62
2023/11/14 17:10:29;;;;;;;6.00;3.88;;;;;;;;;;10223138;28;20383;-62
2023/11/14 17:15:29;;;;;;;5.97;3.45;;;;;;;;;;10233136;28;20373;-63
2023/11/14 17:20:30;;;;;;;8.05;3.78;;;;;;;;;;10229458;28;20065;-64
2023/11/14 17:25:32;;;;;;;7.68;3.97;;;;;;;;;;10234850;28;20070;-63
2023/11/14 17:30:33;;;;;;;4.80;3.78;;;;;;;;;;10260438;28;20106;-63
2023/11/14 17:35:33;;;;;;;6.55;3.60;;;;;;;;;;10250890;28;20039;-63
2023/11/14 17:40:34;;;;;;;12.82;3.88;;;;;;;;;;10253969;28;20038;-62
2023/11/14 17:45:37;;;;;;;5.45;4.05;;;;;;;;;;10246914;28;20043;-62
2023/11/14 17:50:37;;;;;;;6.57;4.45;;;;;;;;;;10245587;28;20054;-63
2023/11/14 17:55:38;;;;;;;5.93;3.92;;;;;;;;;;10247019;28;20487;-64
2023/11/14 18:00:40;;;;;;;6.20;4.28;;;;;;;;;;10244584;28;20039;-64
2023/11/14 18:05:40;;;;;;;4.82;4.10;;;;;;;;;;10243840;28;20035;-63
2023/11/14 18:10:41;;;;;;;5.70;4.00;;;;;;;;;;10232348;28;20031;-65
2023/11/14 18:15:43;;;;;;;7.85;4.80;;;;;;;;;;10236556;28;20035;-63
2023/11/14 18:20:44;;;;;;;7.75;4.07;;;;;;;;;;10231827;28;20090;-65
2023/11/14 18:25:48;;;;;;;6.95;4.22;;;;;;;;;;10237919;28;20023;-65
2023/11/14 18:30:48;;;;;;;8.68;4.18;;;;;;;;;;10232943;28;20024;-65
2023/11/14 18:35:51;;;;;;;4.70;3.85;;;;;;;;;;10236228;28;20487;-63
2023/11/14 18:40:53;;;;;;;5.78;4.30;;;;;;;;;;10242743;28;20422;-63
2023/11/14 18:45:54;;;;;;;5.18;4.13;;;;;;;;;;10248002;28;20046;-63
2023/11/14 18:50:55;;;;;;;10.68;4.38;;;;;;;;;;10241746;28;20445;-63
2023/11/14 18:55:56;;;;;;;8.13;4.75;;;;;;;;;;10235375;28;20035;-63
2023/11/14 19:01:02;;;;;;;11.43;5.00;;;;;;;;;;10245391;28;20071;-63
2023/11/14 19:06:04;;;;;;;7.63;4.47;;;;;;;;;;10245056;28;20042;-63
2023/11/14 19:11:05;;;;;;;9.27;4.75;;;;;;;;;;10247683;28;20048;-63
2023/11/14 19:16:06;;;;;;;7.10;4.53;;;;;;;;;;10247550;28;20042;-63
2023/11/14 19:21:07;;;;;;;11.45;4.80;;;;;;;;;;10243589;28;20037;-63
2023/11/14 19:26:08;;;;;;;15.25;4.75;;;;;;;;;;10243265;28;20411;-63
2023/11/14 19:31:09;;;;;;;7.38;4.35;;;;;;;;;;10238957;28;20071;-62
2023/11/14 19:36:11;;;;;;;15.98;5.50;;;;;;;;;;10234921;28;20075;-62
2023/11/14 19:41:12;;;;;;;11.77;5.32;;;;;;;;;;10234739;29;20035;-62
2023/11/14 19:46:15;;;;;;;23.33;5.65;;;;;;;;;;10215445;28;20050;-62
2023/11/14 19:51:16;;;;;;;18.95;4.63;;;;;;;;;;10221437;28;20048;-62
2023/11/14 19:56:17;;;;;;;18.35;4.78;;;;;;;;;;10222627;28;20494;-64
2023/11/14 20:01:21;;;;;;;28.63;6.20;;;;;;;;;;10239768;28;20030;-63
2023/11/14 20:06:21;;;;;;;29.90;5.97;;;;;;;;;;10253027;28;20677;-63
2023/11/14 20:11:22;;;;;;;15.38;5.40;;;;;;;;;;10245103;29;20246;-63
2023/11/14 20:16:22;;;;;;;20.98;4.80;;;;;;;;;;10245700;29;20043;-63
2023/11/14 20:21:23;;;;;;;30.58;5.60;;;;;;;;;;10245695;28;20075;-63
2023/11/14 20:26:23;;;;;;;19.55;5.28;;;;;;;;;;10247047;28;20027;-63
2023/11/14 20:31:24;;;;;;;13.48;4.90;;;;;;;;;;10226780;28;20023;-64
2023/11/14 20:36:26;;;;;;;7.43;4.43;;;;;;;;;;10236869;28;20031;-62
2023/11/14 20:41:28;;;;;;;13.65;4.28;;;;;;;;;;10253354;28;20043;-63
2023/11/14 20:46:28;;;;;;;11.15;4.95;;;;;;;;;;10232930;29;20047;-62
2023/11/14 20:51:29;;;;;;;12.82;4.25;;;;;;;;;;10231394;28;20412;-62
2023/11/14 20:56:30;;;;;;;11.40;4.90;;;;;;;;;;10225860;28;20369;-62
2023/11/14 21:01:32;;;;;;;14.00;4.70;;;;;;;;;;10232678;28;20023;-62
2023/11/14 21:06:32;;;;;;;13.02;5.18;;;;;;;;;;10232813;28;20031;-62
2023/11/14 21:11:33;;;;;;;8.55;4.43;;;;;;;;;;10209404;28;20058;-62
2023/11/14 21:16:35;;;;;;;10.27;4.60;;;;;;;;;;10237249;29;20035;-63
2023/11/14 21:21:40;;;;;;;8.82;5.15;;;;;;;;;;10217914;29;20039;-62
2023/11/14 21:26:41;;;;;;;16.85;5.15;;;;;;;;;;10239189;28;20102;-62
2023/11/14 21:31:42;;;;;;;9.60;4.68;;;;;;;;;;10237216;28;20031;-62
2023/11/14 21:36:43;;;;;;;12.05;5.13;;;;;;;;;;10251427;28;20032;-62
2023/11/14 21:41:45;;;;;;;8.30;4.57;;;;;;;;;;10244843;28;20050;-63
2023/11/14 21:46:46;;;;;;;12.40;4.88;;;;;;;;;;10246676;28;20081;-62
2023/11/14 21:51:46;;;;;;;10.77;5.10;;;;;;;;;;10240594;28;20428;-62
2023/11/14 21:56:47;;;;;;;11.38;4.45;;;;;;;;;;10239977;29;20031;-64
2023/11/14 22:01:47;;;;;;;7.82;4.80;;;;;;;;;;10223944;28;20035;-64
2023/11/14 22:06:48;;;;;;;11.68;4.30;;;;;;;;;;10241057;28;20027;-64
2023/11/14 22:11:48;;;;;;;8.35;4.43;;;;;;;;;;10248578;28;20031;-64
2023/11/14 22:16:49;;;;;;;10.32;4.60;;;;;;;;;;10252746;28;20186;-64
2023/11/14 22:21:52;;;;;;;6.72;4.65;;;;;;;;;;10239495;28;20042;-64
2023/11/14 22:26:56;;;;;;;6.38;4.53;;;;;;;;;;10249850;29;20023;-65
2023/11/14 22:31:56;;;;;;;10.68;5.13;;;;;;;;;;10243007;29;20082;-64
2023/11/14 22:36:57;;;;;;;8.52;5.22;;;;;;;;;;10240246;28;20075;-63
2023/11/14 22:41:58;;;;;;;10.85;4.68;;;;;;;;;;10236233;28;20404;-62
2023/11/14 22:46:59;;;;;;;12.90;5.43;;;;;;;;;;10224746;28;20024;-61
2023/11/14 22:51:59;;;;;;;20.23;5.53;;;;;;;;;;10213636;28;20043;-62
2023/11/14 22:57:00;;;;;;;9.70;5.20;;;;;;;;;;10222403;28;20035;-62
2023/11/14 23:02:00;;;;;;;11.52;5.03;;;;;;;;;;10215580;28;20158;-62
2023/11/14 23:07:01;;;;;;;9.18;5.40;;;;;;;;;;10215354;29;20031;-62
2023/11/14 23:12:05;;;;;;;13.30;5.20;;;;;;;;;;10219377;28;20047;-62
2023/11/14 23:17:06;;;;;;;13.93;5.30;;;;;;;;;;10225846;28;20027;-62
2023/11/14 23:22:07;;;;;;;12.02;4.53;;;;;;;;;;10240887;28;20038;-63
2023/11/14 23:27:08;;;;;;;10.93;4.85;;;;;;;;;;10248029;28;20031;-64
2023/11/14 23:32:09;;;;;;;16.85;4.95;;;;;;;;;;10244628;28;20562;-63
2023/11/14 23:37:10;;;;;;;12.60;5.10;;;;;;;;;;10234342;29;20050;-63
2023/11/14 23:42:10;;;;;;;12.15;5.43;;;;;;;;;;10246791;28;20028;-64
2023/11/14 23:47:11;;;;;;;11.70;5.75;;;;;;;;;;10254483;28;20027;-69
2023/11/14 23:52:12;;;;;;;15.05;5.60;;;;;;;;;;10244628;28;20042;-67
2023/11/14 23:57:13;;;;;;;16.75;5.20;;;;;;;;;;10252629;28;20098;-66
